createdAt,value
2022-10-18T00:02:36.424Z,96459.94
2022-10-18T00:05:38.440Z,96451.81
2022-10-18T00:08:40.386Z,96456.06
2022-10-18T00:11:43.819Z,96457.28
2022-10-18T00:14:48.914Z,96459.56
2022-10-18T00:17:50.838Z,96453.31
2022-10-18T00:21:00.792Z,96451.84
2022-10-18T00:24:03.725Z,96446.59
2022-10-18T00:27:07.266Z,96447.75
2022-10-18T00:30:10.038Z,96442.03
2022-10-18T00:33:11.998Z,96449.63
2022-10-18T00:36:14.762Z,96447.16
2022-10-18T00:39:18.390Z,96445.22
2022-10-18T00:42:25.262Z,96437.94
2022-10-18T00:45:27.385Z,96438.28
2022-10-18T00:48:29.405Z,96435.06
2022-10-18T00:51:36.332Z,96432.13
2022-10-18T00:54:41.911Z,96434.09
2022-10-18T00:57:46.072Z,96435.53
2022-10-18T01:00:48.153Z,96437.53
2022-10-18T01:03:52.249Z,96443.47
2022-10-18T01:07:01.196Z,96437.22
2022-10-18T01:10:12.953Z,96436.81
2022-10-18T01:13:29.376Z,96434.88
2022-10-18T01:16:38.027Z,96436.63
2022-10-18T01:20:11.825Z,96427.56
2022-10-18T01:23:19.218Z,96425.16
2022-10-18T01:26:37.074Z,96419.28
2022-10-18T01:29:51.375Z,96421.59
2022-10-18T01:32:59.676Z,96413.97
2022-10-18T01:36:07.605Z,96423.31
2022-10-18T01:39:14.405Z,96415.00
2022-10-18T01:42:20.294Z,96416.78
2022-10-18T01:45:24.226Z,96420.81
2022-10-18T01:48:27.888Z,96421.88
2022-10-18T01:51:31.950Z,96418.03
2022-10-18T01:54:37.474Z,96419.66
2022-10-18T01:57:43.896Z,96422.63
2022-10-18T02:00:50.773Z,96415.03
2022-10-18T02:04:00.539Z,96414.13
2022-10-18T02:07:08.996Z,96409.31
2022-10-18T02:10:18.174Z,96405.13
2022-10-18T02:13:23.736Z,96414.78
2022-10-18T02:16:30.234Z,96415.84
2022-10-18T02:19:38.318Z,96421.81
2022-10-18T02:22:42.324Z,96420.84
2022-10-18T02:25:44.342Z,96418.34
2022-10-18T02:28:46.457Z,96427.84
2022-10-18T02:31:52.929Z,96426.66
2022-10-18T02:35:00.729Z,96427.59
2022-10-18T02:38:04.441Z,96431.59
2022-10-18T02:41:06.496Z,96437.91
2022-10-18T02:44:08.493Z,96435.63
2022-10-18T02:47:11.634Z,96440.63
2022-10-18T02:50:15.471Z,96435.69
2022-10-18T02:53:17.409Z,96434.22
2022-10-18T02:56:19.727Z,96436.97
2022-10-18T02:59:21.898Z,96439.38
2022-10-18T03:02:23.929Z,96434.97
2022-10-18T03:05:27.467Z,96437.88
2022-10-18T03:08:29.621Z,96439.91
2022-10-18T03:11:32.228Z,96438.81
2022-10-18T03:14:34.126Z,96443.47
2022-10-18T03:17:36.000Z,96446.59
2022-10-18T03:20:39.711Z,96432.31
2022-10-18T03:23:41.694Z,96439.31
2022-10-18T03:26:43.566Z,96440.34
2022-10-18T03:29:45.461Z,96438.00
2022-10-18T03:32:47.488Z,96438.09
2022-10-18T03:35:50.790Z,96439.31
2022-10-18T03:38:52.817Z,96441.19
2022-10-18T03:41:54.760Z,96443.78
2022-10-18T03:44:56.708Z,96447.97
2022-10-18T03:47:58.935Z,96456.31
2022-10-18T03:51:02.288Z,96454.09
2022-10-18T03:54:04.330Z,96456.47
2022-10-18T03:57:06.212Z,96457.75
2022-10-18T04:00:09.227Z,96464.34
2022-10-18T04:03:11.205Z,96460.50
2022-10-18T04:06:14.546Z,96459.72
2022-10-18T04:09:16.867Z,96445.84
2022-10-18T04:12:18.759Z,96452.69
2022-10-18T04:15:21.223Z,96449.88
2022-10-18T04:18:23.259Z,96446.41
2022-10-18T04:21:26.573Z,96451.06
2022-10-18T04:24:28.541Z,96450.13
2022-10-18T04:27:30.942Z,96446.69
2022-10-18T04:30:33.158Z,96442.47
2022-10-18T04:33:35.348Z,96439.38
2022-10-18T04:36:38.597Z,96439.44
2022-10-18T04:39:40.558Z,96443.28
2022-10-18T04:42:42.468Z,96446.31
2022-10-18T04:45:45.133Z,96437.38
2022-10-18T04:48:47.020Z,96431.19
2022-10-18T04:51:50.756Z,96437.44
2022-10-18T04:54:52.711Z,96440.03
2022-10-18T04:57:55.196Z,96429.56
2022-10-18T05:00:57.200Z,96422.88
2022-10-18T05:03:59.159Z,96426.38
2022-10-18T05:07:02.471Z,96422.47
2022-10-18T05:10:05.680Z,96420.09
2022-10-18T05:13:07.652Z,96419.06
2022-10-18T05:16:10.160Z,96421.34
2022-10-18T05:19:12.041Z,96411.47
2022-10-18T05:22:15.350Z,96409.34
2022-10-18T05:25:17.368Z,96414.81
2022-10-18T05:28:39.760Z,96406.22
2022-10-18T05:31:41.239Z,96414.56
2022-10-18T05:34:43.148Z,96414.84
2022-10-18T05:37:46.820Z,96428.41
2022-10-18T05:40:48.912Z,96419.00
2022-10-18T05:43:50.807Z,96416.88
2022-10-18T05:46:52.903Z,96421.91
2022-10-18T05:49:54.930Z,96423.84
2022-10-18T05:53:06.905Z,96418.91
2022-10-18T05:56:20.390Z,96418.94
2022-10-18T05:59:22.427Z,96417.81
2022-10-18T06:02:24.527Z,96417.25
2022-10-18T06:05:26.535Z,96424.41
2022-10-18T06:08:30.094Z,96419.13
2022-10-18T06:11:32.661Z,96406.97
2022-10-18T06:14:34.708Z,96409.84
2022-10-18T06:17:36.979Z,96409.47
2022-10-18T06:20:39.114Z,96413.38
2022-10-18T06:23:43.314Z,96412.69
2022-10-18T06:26:45.235Z,96415.94
2022-10-18T06:29:47.202Z,96419.09
2022-10-18T06:32:49.190Z,96426.19
2022-10-18T06:35:55.522Z,96432.84
2022-10-18T06:38:59.174Z,96438.22
2022-10-18T06:42:01.157Z,96433.03
2022-10-18T06:45:03.118Z,96429.59
2022-10-18T06:48:05.650Z,96439.38
2022-10-18T06:51:08.467Z,96440.25
2022-10-18T06:54:19.294Z,96428.50
2022-10-18T06:57:21.337Z,96437.53
2022-10-18T07:00:23.720Z,96446.66
2022-10-18T07:03:25.987Z,96445.69
2022-10-18T07:06:27.993Z,96449.63
2022-10-18T07:09:31.362Z,96448.09
2022-10-18T07:12:34.178Z,96454.00
2022-10-18T07:15:36.196Z,96458.41
2022-10-18T07:18:40.115Z,96458.19
2022-10-18T07:21:42.086Z,96444.03
2022-10-18T07:24:45.409Z,96448.81
2022-10-18T07:27:47.619Z,96457.19
2022-10-18T07:30:49.645Z,96471.25
2022-10-18T07:33:51.995Z,96477.94
2022-10-18T07:36:53.917Z,96462.22
2022-10-18T07:39:57.334Z,96465.81
2022-10-18T07:43:04.069Z,96464.03
2022-10-18T07:46:06.906Z,96462.28
2022-10-18T07:49:08.919Z,96462.84
2022-10-18T07:52:10.979Z,96460.22
2022-10-18T07:55:14.531Z,96461.44
2022-10-18T07:58:16.430Z,96466.56
2022-10-18T08:01:19.601Z,96468.94
2022-10-18T08:04:21.691Z,96465.53
2022-10-18T08:07:23.746Z,96471.06
2022-10-18T08:10:27.088Z,96473.81
2022-10-18T08:13:29.733Z,96470.75
2022-10-18T08:19:34.956Z,96467.47
2022-10-18T08:22:36.911Z,96464.84
2022-10-18T08:25:40.339Z,96476.16
2022-10-18T08:28:49.116Z,96475.53
2022-10-18T08:31:56.146Z,96467.00
2022-10-18T08:34:58.114Z,96476.72
2022-10-18T08:38:00.391Z,96475.56
2022-10-18T08:41:19.571Z,96474.84
2022-10-18T08:44:24.546Z,96479.91
2022-10-18T08:47:34.459Z,96474.09
2022-10-18T08:50:37.288Z,96472.59
2022-10-18T08:53:48.196Z,96473.75
2022-10-18T08:56:59.094Z,96465.25
2022-10-18T09:00:02.678Z,96469.13
2022-10-18T09:03:17.754Z,96478.09
2022-10-18T09:06:26.635Z,96474.63
2022-10-18T09:09:38.834Z,96478.13
2022-10-18T09:12:55.822Z,96472.69
2022-10-18T09:16:00.728Z,96477.34
2022-10-18T09:19:11.244Z,96485.13
2022-10-18T09:22:14.644Z,96473.47
2022-10-18T09:25:19.490Z,96474.19
2022-10-18T09:28:36.737Z,96474.22
2022-10-18T09:31:47.619Z,96480.41
2022-10-18T09:34:53.493Z,96481.97
2022-10-18T09:38:02.413Z,96484.28
2022-10-18T09:41:10.739Z,96479.94
2022-10-18T09:44:19.392Z,96476.03
2022-10-18T09:47:25.366Z,96463.94
2022-10-18T09:50:32.610Z,96464.69
2022-10-18T09:53:41.979Z,96462.34
2022-10-18T09:56:48.745Z,96474.38
2022-10-18T09:59:52.248Z,96480.59
2022-10-18T10:02:54.314Z,96480.59
2022-10-18T10:06:03.631Z,96482.09
2022-10-18T10:09:07.222Z,96472.63
2022-10-18T10:12:25.782Z,96467.16
2022-10-18T10:15:33.192Z,96475.28
2022-10-18T10:18:40.239Z,96463.56
2022-10-18T10:21:42.552Z,96458.06
2022-10-18T10:24:48.685Z,96467.59
2022-10-18T10:27:51.177Z,96469.22
2022-10-18T10:30:54.847Z,96459.84
2022-10-18T10:34:01.203Z,96458.69
2022-10-18T10:37:03.464Z,96449.44
2022-10-18T10:40:17.812Z,96445.03
2022-10-18T10:43:40.431Z,96450.19
2022-10-18T10:46:46.521Z,96453.88
2022-10-18T10:49:48.583Z,96450.94
2022-10-18T10:52:51.067Z,96454.72
2022-10-18T10:55:54.288Z,96453.09
2022-10-18T10:59:01.635Z,96445.75
2022-10-18T11:02:23.030Z,96454.19
2022-10-18T11:05:27.251Z,96443.50
2022-10-18T11:08:33.193Z,96439.25
2022-10-18T11:11:40.837Z,96432.09
2022-10-18T11:14:47.343Z,96424.88
2022-10-18T11:18:00.577Z,96425.63
2022-10-18T11:21:06.838Z,96423.00
2022-10-18T11:24:15.799Z,96422.34
2022-10-18T11:27:27.863Z,96411.81
2022-10-18T11:30:46.927Z,96404.34
2022-10-18T11:34:10.512Z,96393.94
2022-10-18T11:37:38.623Z,96392.00
2022-10-18T11:41:07.365Z,96390.66
2022-10-18T11:44:19.435Z,96397.13
2022-10-18T11:47:27.759Z,96397.19
2022-10-18T11:50:40.710Z,96396.06
2022-10-18T11:54:00.907Z,96383.72
2022-10-18T11:57:18.567Z,96393.63
2022-10-18T12:00:35.033Z,96388.66
2022-10-18T12:03:52.496Z,96393.81
2022-10-18T12:06:57.351Z,96390.00
2022-10-18T12:10:01.667Z,96363.63
2022-10-18T12:13:07.280Z,96380.22
2022-10-18T12:16:10.841Z,96376.94
2022-10-18T12:19:22.109Z,96374.16
2022-10-18T12:22:37.938Z,96372.50
2022-10-18T12:25:43.130Z,96368.31
2022-10-18T12:28:56.821Z,96369.66
2022-10-18T12:32:02.485Z,96368.06
2022-10-18T12:35:11.775Z,96363.47
2022-10-18T12:38:19.752Z,96362.34
2022-10-18T12:41:25.734Z,96358.41
2022-10-18T12:44:31.497Z,96355.81
2022-10-18T12:47:34.012Z,96353.63
2022-10-18T12:50:38.653Z,96353.28
2022-10-18T12:53:43.065Z,96348.41
2022-10-18T12:56:46.080Z,96337.97
2022-10-18T12:59:48.128Z,96331.00
2022-10-18T13:03:25.237Z,96338.94
2022-10-18T13:07:05.545Z,96339.72
2022-10-18T13:10:41.828Z,96335.50
2022-10-18T13:13:57.941Z,96336.00
2022-10-18T13:17:07.095Z,96331.41
2022-10-18T13:20:27.208Z,96333.25
2022-10-18T13:23:39.334Z,96335.91
2022-10-18T13:26:59.054Z,96332.06
2022-10-18T13:30:32.951Z,96335.91
2022-10-18T13:33:36.307Z,96332.97
2022-10-18T13:36:38.364Z,96332.75
2022-10-18T13:39:40.802Z,96338.78
2022-10-18T13:42:44.145Z,96334.09
2022-10-18T13:45:55.500Z,96339.41
2022-10-18T13:49:00.425Z,96346.44
2022-10-18T13:52:15.422Z,96341.16
2022-10-18T13:55:40.699Z,96347.22
2022-10-18T13:59:13.066Z,96344.50
2022-10-18T14:02:50.932Z,96351.66
2022-10-18T14:05:56.976Z,96346.50
2022-10-18T14:09:09.587Z,96333.50
2022-10-18T14:12:31.184Z,96336.41
2022-10-18T14:15:37.491Z,96328.19
2022-10-18T14:18:42.863Z,96330.34
2022-10-18T14:21:54.035Z,96336.09
2022-10-18T14:24:58.324Z,96333.31
2022-10-18T14:28:08.916Z,96337.34
2022-10-18T14:31:18.317Z,96342.13
2022-10-18T14:34:21.742Z,96339.56
2022-10-18T14:37:28.051Z,96334.41
2022-10-18T14:40:36.797Z,96336.28
2022-10-18T14:43:38.804Z,96334.28
2022-10-18T14:46:45.952Z,96339.22
2022-10-18T14:49:48.716Z,96329.25
2022-10-18T14:52:51.153Z,96329.25
2022-10-18T14:55:55.519Z,96324.38
2022-10-18T14:59:01.318Z,96325.06
2022-10-18T15:02:13.466Z,96325.50
2022-10-18T15:05:20.278Z,96323.19
2022-10-18T15:08:24.648Z,96316.63
2022-10-18T15:11:28.249Z,96324.09
2022-10-18T15:14:30.999Z,96322.97
2022-10-18T15:17:35.354Z,96318.63
2022-10-18T15:20:38.241Z,96325.06
2022-10-18T15:23:40.304Z,96315.94
2022-10-18T15:26:45.128Z,96312.75
2022-10-18T15:29:47.276Z,96316.00
2022-10-18T15:32:56.694Z,96304.94
2022-10-18T15:36:08.721Z,96310.25
2022-10-18T15:39:17.540Z,96292.78
2022-10-18T15:42:36.934Z,96302.81
2022-10-18T15:49:18.730Z,96311.53
2022-10-18T15:52:38.509Z,96310.22
2022-10-18T15:55:49.723Z,96305.75
2022-10-18T15:58:52.231Z,96301.47
2022-10-18T16:01:54.760Z,96305.47
2022-10-18T16:05:01.169Z,96299.56
2022-10-18T16:08:03.815Z,96304.66
2022-10-18T16:11:06.454Z,96307.44
2022-10-18T16:14:08.729Z,96308.69
2022-10-18T16:17:12.681Z,96306.88
2022-10-18T16:20:20.200Z,96313.75
2022-10-18T16:23:24.616Z,96307.75
2022-10-18T16:26:27.574Z,96319.19
2022-10-18T16:29:29.748Z,96318.56
2022-10-18T16:32:31.888Z,96328.06
2022-10-18T16:35:35.551Z,96326.09
2022-10-18T16:38:37.676Z,96323.31
2022-10-18T16:41:39.663Z,96328.16
2022-10-18T16:44:41.611Z,96337.78
2022-10-18T16:47:43.610Z,96334.09
2022-10-18T16:50:47.834Z,96328.44
2022-10-18T16:53:50.585Z,96336.09
2022-10-18T16:56:52.511Z,96334.56
2022-10-18T16:59:54.626Z,96340.28
2022-10-18T17:02:56.966Z,96331.53
2022-10-18T17:06:02.055Z,96337.63
2022-10-18T17:09:05.532Z,96341.28
2022-10-18T17:12:07.704Z,96344.72
2022-10-18T17:15:13.140Z,96340.84
2022-10-18T17:18:17.176Z,96344.00
2022-10-18T17:21:22.648Z,96335.41
2022-10-18T17:24:25.946Z,96338.16
2022-10-18T17:27:28.542Z,96343.13
2022-10-18T17:30:32.330Z,96347.72
2022-10-18T17:33:37.178Z,96348.44
2022-10-18T17:36:41.283Z,96342.91
2022-10-18T17:39:46.825Z,96344.38
2022-10-18T17:42:54.066Z,96341.69
2022-10-18T17:45:59.252Z,96340.84
2022-10-18T17:49:03.092Z,96348.25
2022-10-18T17:52:07.736Z,96348.72
2022-10-18T17:55:10.315Z,96350.34
2022-10-18T17:58:14.009Z,96351.63
2022-10-18T18:01:19.101Z,96354.34
2022-10-18T18:04:21.918Z,96350.28
2022-10-18T18:07:27.570Z,96347.97
2022-10-18T18:10:30.577Z,96351.75
2022-10-18T18:13:37.951Z,96347.84
2022-10-18T18:16:42.940Z,96353.69
2022-10-18T18:22:55.171Z,96347.69
2022-10-18T18:25:58.500Z,96353.88
2022-10-18T18:32:06.190Z,96356.47
2022-10-18T18:35:09.024Z,96353.19
2022-10-18T18:38:13.062Z,96357.88
2022-10-18T18:41:22.374Z,96364.09
2022-10-18T18:44:24.837Z,96368.81
2022-10-18T18:47:28.692Z,96365.16
2022-10-18T18:50:31.281Z,96367.53
2022-10-18T18:53:35.820Z,96370.19
2022-10-18T18:56:39.461Z,96365.09
2022-10-18T18:59:42.571Z,96372.09
2022-10-18T19:02:47.902Z,96372.22
2022-10-18T19:05:50.454Z,96373.84
2022-10-18T19:08:55.772Z,96366.00
2022-10-18T19:11:58.627Z,96375.34
2022-10-18T19:15:01.877Z,96371.81
2022-10-18T19:18:04.572Z,96371.16
2022-10-18T19:21:09.620Z,96375.81
2022-10-18T19:24:16.627Z,96383.31
2022-10-18T19:27:19.721Z,96375.94
2022-10-18T19:30:22.831Z,96382.16
2022-10-18T19:33:41.350Z,96371.63
2022-10-18T19:36:49.848Z,96371.16
2022-10-18T19:39:54.072Z,96369.66
2022-10-18T19:42:56.992Z,96357.94
2022-10-18T19:46:02.913Z,96361.81
2022-10-18T19:49:05.491Z,96368.13
2022-10-18T19:52:08.726Z,96377.91
2022-10-18T19:55:13.514Z,96373.56
2022-10-18T19:58:18.405Z,96380.63
2022-10-18T20:01:21.583Z,96375.94
2022-10-18T20:04:24.155Z,96378.28
2022-10-18T20:07:26.944Z,96371.25
2022-10-18T20:10:30.671Z,96375.16
2022-10-18T20:13:35.988Z,96380.56
2022-10-18T20:16:38.291Z,96368.19
2022-10-18T20:19:40.907Z,96373.63
2022-10-18T20:22:43.255Z,96380.66
2022-10-18T20:25:57.096Z,96376.78
2022-10-18T20:28:59.113Z,96385.31
2022-10-18T20:32:01.216Z,96385.31
2022-10-18T20:35:03.235Z,96385.38
2022-10-18T20:38:05.156Z,96397.06
2022-10-18T20:41:11.550Z,96397.44
2022-10-18T20:44:15.156Z,96393.63
2022-10-18T20:47:17.138Z,96403.41
2022-10-18T20:50:19.001Z,96398.69
2022-10-18T20:53:21.327Z,96404.09
2022-10-18T20:56:26.219Z,96401.03
2022-10-18T20:59:28.244Z,96401.00
2022-10-18T21:02:30.170Z,96408.41
2022-10-18T21:05:33.142Z,96414.28
2022-10-18T21:08:35.034Z,96424.00
2022-10-18T21:11:40.122Z,96417.78
2022-10-18T21:14:42.073Z,96422.06
2022-10-18T21:17:44.034Z,96427.13
2022-10-18T21:20:45.972Z,96426.00
2022-10-18T21:23:47.902Z,96429.09
2022-10-18T21:26:51.230Z,96434.56
2022-10-18T21:29:53.117Z,96424.81
2022-10-18T21:32:55.282Z,96423.25
2022-10-18T21:36:01.334Z,96427.16
2022-10-18T21:39:04.466Z,96424.81
2022-10-18T21:42:07.947Z,96420.09
2022-10-18T21:45:10.406Z,96418.91
2022-10-18T21:48:12.441Z,96418.56
2022-10-18T21:51:16.481Z,96415.44
2022-10-18T21:54:19.018Z,96413.94
2022-10-18T21:57:22.453Z,96412.38
2022-10-18T22:00:24.409Z,96415.50
2022-10-18T22:03:26.475Z,96413.16
2022-10-18T22:06:29.621Z,96422.50
2022-10-18T22:09:31.784Z,96413.94
2022-10-18T22:12:35.084Z,96422.91
2022-10-18T22:18:45.241Z,96420.13
2022-10-18T22:21:47.594Z,96419.75
2022-10-18T22:24:49.523Z,96415.09
2022-10-18T22:27:52.800Z,96414.28
2022-10-18T22:30:54.705Z,96407.28
2022-10-18T22:33:58.798Z,96411.91
2022-10-18T22:37:00.699Z,96407.25
2022-10-18T22:40:03.357Z,96405.69
2022-10-18T22:43:06.728Z,96399.47
2022-10-18T22:46:10.454Z,96410.78
2022-10-18T22:49:12.619Z,96404.94
2022-10-18T22:52:14.546Z,96411.53
2022-10-18T22:55:16.479Z,96410.78
2022-10-18T22:58:20.159Z,96404.16
2022-10-18T23:01:23.599Z,96403.00
2022-10-18T23:04:25.731Z,96402.97
2022-10-18T23:07:27.889Z,96402.19
2022-10-18T23:10:29.839Z,96391.31
2022-10-18T23:13:36.119Z,96395.59
2022-10-18T23:16:40.649Z,96393.31
2022-10-18T23:19:43.147Z,96392.53
2022-10-18T23:22:45.223Z,96396.81
2022-10-18T23:25:50.989Z,96396.41
2022-10-18T23:28:55.381Z,96390.97
2022-10-18T23:31:57.579Z,96397.19
2022-10-18T23:34:59.508Z,96385.53
2022-10-18T23:38:01.545Z,96389.81
2022-10-18T23:41:03.953Z,96391.75
2022-10-18T23:44:07.266Z,96385.50
2022-10-18T23:47:09.261Z,96385.13
2022-10-18T23:50:11.512Z,96384.34
2022-10-18T23:53:13.608Z,96383.56
2022-10-18T23:56:16.709Z,96382.78
2022-10-18T23:59:20.065Z,96378.91
